createdAt,value
2022-12-11T00:00:04.974Z,51.72
2022-12-11T00:02:31.415Z,47.67
2022-12-11T00:04:57.958Z,47.58
2022-12-11T00:07:24.421Z,59.05
2022-12-11T00:09:50.792Z,51.90
2022-12-11T00:12:17.191Z,51.70
2022-12-11T00:14:43.563Z,56.72
2022-12-11T00:17:10.227Z,58.47
2022-12-11T00:19:36.644Z,53.53
2022-12-11T00:22:03.236Z,55.83
2022-12-11T00:24:29.627Z,56.85
2022-12-11T00:26:56.015Z,55.38
2022-12-11T00:29:22.376Z,53.25
2022-12-11T00:31:48.768Z,53.63
2022-12-11T00:34:15.226Z,55.50
2022-12-11T00:36:41.647Z,52.85
2022-12-11T00:39:08.088Z,56.25
2022-12-11T00:41:34.463Z,52.50
2022-12-11T00:44:00.837Z,53.55
2022-12-11T00:46:27.233Z,52.63
2022-12-11T00:48:53.632Z,57.85
2022-12-11T00:51:20.175Z,53.33
2022-12-11T00:53:46.605Z,54.83
2022-12-11T00:56:14.703Z,52.00
2022-12-11T01:01:11.649Z,48.03
2022-12-11T01:03:38.169Z,50.85
2022-12-11T01:06:05.359Z,47.28
2022-12-11T01:08:35.430Z,45.87
2022-12-11T01:11:09.706Z,45.08
2022-12-11T01:13:36.720Z,45.25
2022-12-11T01:16:07.168Z,44.58
2022-12-11T01:18:33.589Z,39.05
2022-12-11T01:20:59.947Z,40.33
2022-12-11T01:23:26.317Z,39.92
2022-12-11T01:25:52.689Z,35.95
2022-12-11T01:28:19.057Z,31.65
2022-12-11T01:30:45.467Z,33.85
2022-12-11T01:33:11.938Z,45.72
2022-12-11T01:35:38.880Z,50.78
2022-12-11T01:38:05.231Z,48.63
2022-12-11T01:40:31.613Z,43.42
2022-12-11T01:42:58.000Z,40.88
2022-12-11T01:45:30.396Z,38.50
2022-12-11T01:47:59.999Z,32.72
2022-12-11T01:50:27.620Z,30.92
2022-12-11T01:52:54.011Z,35.17
2022-12-11T01:55:20.676Z,36.20
2022-12-11T01:57:49.019Z,29.92
2022-12-11T02:00:15.770Z,32.53
2022-12-11T02:02:42.299Z,36.60
2022-12-11T02:05:09.438Z,33.95
2022-12-11T02:07:41.381Z,30.13
2022-12-11T02:10:08.467Z,34.88
2022-12-11T02:12:53.843Z,31.65
2022-12-11T02:15:25.279Z,32.70
2022-12-11T02:18:00.306Z,32.22
2022-12-11T02:20:26.632Z,32.60
2022-12-11T02:22:53.003Z,31.10
2022-12-11T02:25:36.937Z,31.95
2022-12-11T02:28:06.189Z,30.48
2022-12-11T02:30:33.452Z,30.08
2022-12-11T02:32:59.876Z,29.30
2022-12-11T02:35:28.327Z,29.98
2022-12-11T02:37:57.846Z,33.60
2022-12-11T02:40:26.763Z,30.65
2022-12-11T02:42:54.399Z,28.00
2022-12-11T02:45:21.796Z,36.53
2022-12-11T02:47:48.884Z,31.23
2022-12-11T02:50:16.984Z,33.85
2022-12-11T02:55:11.234Z,33.45
2022-12-11T02:57:46.840Z,31.98
2022-12-11T03:00:13.725Z,28.50
2022-12-11T03:02:40.637Z,26.60
2022-12-11T03:05:07.471Z,27.27
2022-12-11T03:07:35.136Z,28.38
2022-12-11T03:10:01.492Z,26.10
2022-12-11T03:12:29.536Z,23.95
2022-12-11T03:17:23.521Z,25.80
2022-12-11T03:19:53.546Z,23.75
2022-12-11T03:22:25.832Z,26.52
2022-12-11T03:24:55.167Z,24.95
2022-12-11T03:27:24.636Z,26.48
2022-12-11T03:29:55.706Z,24.33
2022-12-11T03:32:24.523Z,22.23
2022-12-11T03:35:00.936Z,24.27
2022-12-11T03:37:28.908Z,23.65
2022-12-11T03:39:59.220Z,25.40
2022-12-11T03:42:26.808Z,23.15
2022-12-11T03:44:54.635Z,23.15
2022-12-11T03:47:22.675Z,23.38
2022-12-11T03:49:49.739Z,22.38
2022-12-11T03:52:16.947Z,24.45
2022-12-11T03:54:45.832Z,24.63
2022-12-11T03:57:14.051Z,27.35
2022-12-11T03:59:40.470Z,27.20
2022-12-11T04:02:11.033Z,27.85
2022-12-11T04:04:38.209Z,26.55
2022-12-11T04:07:04.604Z,22.73
2022-12-11T04:09:30.963Z,26.15
2022-12-11T04:11:57.361Z,22.10
2022-12-11T04:14:42.188Z,23.65
2022-12-11T04:17:08.593Z,24.70
2022-12-11T04:19:53.415Z,23.00
2022-12-11T04:22:38.318Z,23.00
2022-12-11T04:25:06.038Z,23.77
2022-12-11T04:27:50.804Z,24.05
2022-12-11T04:30:21.619Z,24.55
2022-12-11T04:32:48.494Z,21.08
2022-12-11T04:35:15.272Z,24.27
2022-12-11T04:37:42.073Z,24.17
2022-12-11T04:40:09.962Z,22.35
2022-12-11T04:42:36.383Z,24.65
2022-12-11T04:45:03.411Z,23.38
2022-12-11T04:47:29.763Z,24.75
2022-12-11T04:49:56.187Z,22.95
2022-12-11T04:52:22.591Z,21.77
2022-12-11T04:54:48.984Z,24.30
2022-12-11T04:57:15.466Z,23.33
2022-12-11T04:59:41.836Z,21.33
2022-12-11T05:02:08.193Z,24.75
2022-12-11T05:04:35.188Z,24.75
2022-12-11T05:07:01.956Z,23.60
2022-12-11T05:09:28.560Z,23.75
2022-12-11T05:11:55.011Z,23.48
2022-12-11T05:14:21.440Z,22.50
2022-12-11T05:16:47.954Z,23.10
2022-12-11T05:19:14.431Z,24.92
2022-12-11T05:21:40.856Z,22.00
2022-12-11T05:24:07.363Z,20.55
2022-12-11T05:26:33.763Z,21.60
2022-12-11T05:29:00.142Z,23.10
2022-12-11T05:31:27.222Z,21.05
2022-12-11T05:33:54.506Z,23.05
2022-12-11T05:36:22.196Z,20.20
2022-12-11T05:38:48.615Z,22.58
2022-12-11T05:41:16.447Z,19.15
2022-12-11T05:43:43.083Z,20.85
2022-12-11T05:46:13.960Z,21.67
2022-12-11T05:48:41.284Z,22.13
2022-12-11T05:51:08.413Z,21.65
2022-12-11T05:53:35.687Z,21.83
2022-12-11T05:56:03.168Z,20.43
2022-12-11T05:58:29.681Z,17.92
2022-12-11T06:00:56.085Z,21.63
2022-12-11T06:03:22.465Z,19.13
2022-12-11T06:05:49.385Z,21.05
2022-12-11T06:08:15.847Z,22.77
2022-12-11T06:10:49.219Z,22.08
2022-12-11T06:13:15.987Z,21.23
2022-12-11T06:15:42.388Z,21.92
2022-12-11T06:18:08.776Z,22.17
2022-12-11T06:20:35.381Z,19.23
2022-12-11T06:23:02.014Z,23.98
2022-12-11T06:25:28.609Z,21.25
2022-12-11T06:27:55.085Z,20.35
2022-12-11T06:30:21.644Z,21.40
2022-12-11T06:32:48.462Z,22.65
2022-12-11T06:35:14.967Z,21.63
2022-12-11T06:37:41.392Z,19.40
2022-12-11T06:40:08.776Z,20.52
2022-12-11T06:42:35.436Z,21.00
2022-12-11T06:45:01.809Z,21.88
2022-12-11T06:47:31.376Z,19.35
2022-12-11T06:49:57.823Z,21.70
2022-12-11T06:52:24.598Z,20.70
2022-12-11T06:54:51.000Z,20.42
2022-12-11T06:57:17.782Z,21.25
2022-12-11T06:59:44.151Z,20.23
2022-12-11T07:02:14.738Z,21.77
2022-12-11T07:04:41.347Z,25.55
2022-12-11T07:07:08.203Z,23.33
2022-12-11T07:09:35.095Z,22.40
2022-12-11T07:12:01.528Z,21.65
2022-12-11T07:14:27.922Z,17.92
2022-12-11T07:16:54.606Z,20.77
2022-12-11T07:19:21.047Z,22.23
2022-12-11T07:21:47.425Z,21.85
2022-12-11T07:24:13.817Z,22.02
2022-12-11T07:26:40.275Z,22.30
2022-12-11T07:29:06.711Z,23.73
2022-12-11T07:31:33.178Z,22.05
2022-12-11T07:34:01.001Z,23.60
2022-12-11T07:36:28.272Z,21.52
2022-12-11T07:38:54.704Z,23.70
2022-12-11T07:41:21.468Z,24.02
2022-12-11T07:43:47.884Z,21.15
2022-12-11T07:46:15.692Z,21.85
2022-12-11T07:48:43.748Z,20.55
2022-12-11T07:51:10.155Z,21.30
2022-12-11T07:53:36.533Z,20.98
2022-12-11T07:56:03.426Z,24.35
2022-12-11T07:58:29.864Z,23.45
2022-12-11T08:00:56.296Z,26.50
2022-12-11T08:03:22.730Z,24.00
2022-12-11T08:05:49.934Z,22.98
2022-12-11T08:08:16.639Z,21.70
2022-12-11T08:10:43.169Z,24.60
2022-12-11T08:13:09.586Z,19.90
2022-12-11T08:15:36.035Z,20.30
2022-12-11T08:18:02.499Z,21.52
2022-12-11T08:20:28.929Z,23.98
2022-12-11T08:22:59.166Z,22.77
2022-12-11T08:25:27.061Z,19.92
2022-12-11T08:27:53.448Z,26.17
2022-12-11T08:30:19.828Z,20.67
2022-12-11T08:32:46.298Z,19.90
2022-12-11T08:35:12.859Z,20.67
2022-12-11T08:37:40.214Z,18.25
2022-12-11T08:40:07.092Z,19.47
2022-12-11T08:42:33.507Z,19.65
2022-12-11T08:44:59.859Z,20.67
2022-12-11T08:47:26.434Z,18.63
2022-12-11T08:49:52.875Z,19.50
2022-12-11T08:52:19.237Z,20.15
2022-12-11T08:54:45.642Z,20.52
2022-12-11T08:57:12.056Z,17.83
2022-12-11T08:59:38.417Z,17.98
2022-12-11T09:02:04.788Z,17.23
2022-12-11T09:04:31.158Z,18.27
2022-12-11T09:06:57.572Z,20.30
2022-12-11T09:09:23.965Z,19.88
2022-12-11T09:11:50.338Z,19.95
2022-12-11T09:14:16.862Z,23.50
2022-12-11T09:16:43.250Z,22.63
2022-12-11T09:19:12.811Z,21.83
2022-12-11T09:21:39.270Z,23.10
2022-12-11T09:24:05.819Z,20.80
2022-12-11T09:26:32.397Z,20.92
2022-12-11T09:28:58.853Z,23.58
2022-12-11T09:31:25.200Z,22.83
2022-12-11T09:33:53.908Z,20.80
2022-12-11T09:36:20.314Z,22.80
2022-12-11T09:38:46.756Z,24.80
2022-12-11T09:41:16.151Z,21.50
2022-12-11T09:43:46.314Z,25.02
2022-12-11T09:46:14.053Z,23.02
2022-12-11T09:48:42.868Z,22.45
2022-12-11T09:51:27.018Z,21.83
2022-12-11T09:53:55.170Z,73.65
2022-12-11T09:56:21.514Z,23.27
2022-12-11T09:58:50.706Z,29.52
2022-12-11T10:01:22.360Z,41.40
2022-12-11T10:03:59.548Z,59.05
2022-12-11T10:06:31.128Z,45.13
2022-12-11T10:09:11.443Z,161.55
2022-12-11T10:11:56.073Z,109.45
2022-12-11T10:14:32.723Z,91.82
2022-12-11T10:17:13.980Z,51.13
2022-12-11T10:19:41.076Z,43.67
2022-12-11T10:22:14.348Z,60.55
2022-12-11T10:25:09.887Z,20.73
2022-12-11T10:27:33.558Z,19.00
2022-12-11T10:30:18.327Z,17.73
2022-12-11T10:32:50.823Z,18.25
2022-12-11T10:35:27.061Z,17.52
2022-12-11T10:37:56.820Z,50.67
2022-12-11T10:40:24.359Z,20.55
2022-12-11T10:42:54.605Z,20.08
2022-12-11T10:45:21.080Z,23.63
2022-12-11T10:47:47.434Z,20.98
2022-12-11T10:50:24.303Z,23.27
2022-12-11T10:52:50.859Z,30.27
2022-12-11T10:55:34.988Z,19.17
2022-12-11T10:58:03.159Z,18.52
2022-12-11T11:00:31.937Z,21.95
2022-12-11T11:02:58.868Z,18.75
2022-12-11T11:05:30.719Z,18.73
2022-12-11T11:08:23.837Z,18.73
2022-12-11T11:10:54.764Z,20.80
2022-12-11T11:13:22.388Z,28.60
2022-12-11T11:15:49.126Z,29.80
2022-12-11T11:18:21.455Z,23.13
2022-12-11T11:20:48.468Z,26.25
2022-12-11T11:23:15.903Z,28.10
2022-12-11T11:25:50.130Z,30.38
2022-12-11T11:28:21.754Z,21.30
2022-12-11T11:30:59.488Z,23.50
2022-12-11T11:33:26.090Z,22.10
2022-12-11T11:35:56.687Z,21.02
2022-12-11T11:38:25.354Z,23.35
2022-12-11T11:41:02.542Z,21.63
2022-12-11T11:43:38.683Z,22.50
2022-12-11T11:46:12.176Z,24.45
2022-12-11T11:48:57.111Z,25.83
2022-12-11T11:51:34.932Z,23.15
2022-12-11T11:54:03.125Z,22.90
2022-12-11T11:56:34.991Z,27.67
2022-12-11T11:59:20.113Z,22.15
2022-12-11T12:01:46.598Z,23.08
2022-12-11T12:04:13.441Z,18.98
2022-12-11T12:06:50.927Z,20.63
2022-12-11T12:09:34.495Z,22.20
2022-12-11T12:12:26.403Z,27.83
2022-12-11T12:14:57.861Z,26.10
2022-12-11T12:17:44.571Z,28.80
2022-12-11T12:20:20.821Z,61.05
2022-12-11T12:23:00.374Z,35.40
2022-12-11T12:25:29.541Z,34.75
2022-12-11T12:27:59.716Z,27.65
2022-12-11T12:30:26.941Z,23.77
2022-12-11T12:33:12.217Z,23.73
2022-12-11T12:35:44.607Z,25.25
2022-12-11T12:38:23.155Z,24.77
2022-12-11T12:40:52.463Z,24.90
2022-12-11T12:43:34.689Z,73.63
2022-12-11T12:46:01.170Z,41.15
2022-12-11T12:48:27.942Z,29.23
2022-12-11T12:50:55.800Z,28.02
2022-12-11T12:53:27.116Z,21.05
2022-12-11T12:55:53.769Z,24.77
2022-12-11T12:58:27.955Z,25.52
2022-12-11T13:00:55.012Z,39.88
2022-12-11T13:03:29.888Z,56.87
2022-12-11T13:06:01.099Z,38.10
2022-12-11T13:08:41.766Z,25.80
2022-12-11T13:11:12.129Z,25.55
2022-12-11T13:13:43.249Z,24.48
2022-12-11T13:16:15.496Z,26.98
2022-12-11T13:18:43.214Z,23.73
2022-12-11T13:21:25.308Z,28.08
2022-12-11T13:23:51.892Z,27.35
2022-12-11T13:26:29.078Z,33.03
2022-12-11T13:28:55.480Z,32.72
2022-12-11T13:31:22.933Z,33.97
2022-12-11T13:33:50.866Z,26.85
2022-12-11T13:36:24.368Z,26.75
2022-12-11T13:38:58.753Z,26.10
2022-12-11T13:41:25.212Z,34.55
2022-12-11T13:43:52.359Z,28.55
2022-12-11T13:46:27.202Z,34.37
2022-12-11T13:48:57.168Z,36.70
2022-12-11T13:51:25.081Z,31.90
2022-12-11T13:54:06.552Z,35.72
2022-12-11T13:56:32.999Z,31.10
2022-12-11T13:58:59.358Z,33.05
2022-12-11T14:01:33.381Z,32.08
2022-12-11T14:04:12.370Z,37.60
2022-12-11T14:06:39.008Z,58.47
2022-12-11T14:09:06.918Z,46.97
2022-12-11T14:11:37.740Z,46.38
2022-12-11T14:14:05.948Z,62.92
2022-12-11T14:16:32.654Z,81.18
2022-12-11T14:19:04.171Z,82.85
2022-12-11T14:21:31.004Z,58.88
2022-12-11T14:23:58.355Z,48.40
2022-12-11T14:26:26.118Z,59.22
2022-12-11T14:28:52.969Z,50.42
2022-12-11T14:31:26.551Z,70.38
2022-12-11T14:33:55.152Z,64.32
2022-12-11T14:36:22.751Z,70.28
2022-12-11T14:39:01.179Z,61.47
2022-12-11T14:41:45.860Z,63.42
2022-12-11T14:44:16.918Z,43.78
2022-12-11T14:46:51.211Z,50.33
2022-12-11T14:49:37.891Z,49.33
2022-12-11T14:52:04.924Z,45.88
2022-12-11T14:54:31.266Z,42.58
2022-12-11T14:56:58.871Z,45.92
2022-12-11T14:59:31.633Z,45.53
2022-12-11T15:01:59.892Z,39.45
2022-12-11T15:04:30.597Z,39.75
2022-12-11T15:06:57.628Z,43.58
2022-12-11T15:09:29.380Z,39.80
2022-12-11T15:11:57.331Z,41.00
2022-12-11T15:14:24.347Z,41.50
2022-12-11T15:16:51.646Z,39.58
2022-12-11T15:19:23.447Z,42.10
2022-12-11T15:21:50.256Z,47.30
2022-12-11T15:24:28.181Z,49.25
2022-12-11T15:29:27.359Z,45.42
2022-12-11T15:32:01.030Z,47.80
2022-12-11T15:34:31.969Z,48.70
2022-12-11T15:36:58.372Z,55.03
2022-12-11T15:39:24.741Z,51.55
2022-12-11T15:41:51.171Z,45.10
2022-12-11T15:44:19.212Z,41.03
2022-12-11T15:49:15.212Z,43.40
2022-12-11T15:51:43.420Z,45.83
2022-12-11T15:54:09.957Z,44.17
2022-12-11T15:56:36.336Z,44.80
2022-12-11T15:59:04.524Z,47.78
2022-12-11T16:01:30.938Z,49.65
2022-12-11T16:04:01.691Z,47.20
2022-12-11T16:06:31.008Z,44.08
2022-12-11T16:08:57.371Z,48.75
2022-12-11T16:11:23.787Z,47.90
2022-12-11T16:13:50.461Z,48.97
2022-12-11T16:16:16.836Z,51.33
2022-12-11T16:18:43.251Z,47.65
2022-12-11T16:21:09.707Z,45.10
2022-12-11T16:23:36.088Z,43.63
2022-12-11T16:26:06.541Z,48.05
2022-12-11T16:28:32.926Z,57.65
2022-12-11T16:30:59.399Z,68.43
2022-12-11T16:33:25.835Z,59.75
2022-12-11T16:35:52.204Z,59.72
2022-12-11T16:38:18.574Z,51.55
2022-12-11T16:40:45.524Z,57.05
2022-12-11T16:43:11.931Z,55.90
2022-12-11T16:45:38.311Z,49.70
2022-12-11T16:48:05.343Z,57.00
2022-12-11T16:50:32.456Z,58.80
2022-12-11T16:52:59.104Z,54.00
2022-12-11T16:55:25.531Z,47.65
2022-12-11T16:57:51.870Z,44.05
2022-12-11T17:00:18.325Z,50.22
2022-12-11T17:02:44.828Z,53.03
2022-12-11T17:05:11.540Z,47.22
2022-12-11T17:07:38.084Z,42.50
2022-12-11T17:10:04.914Z,50.55
2022-12-11T17:12:31.458Z,48.20
2022-12-11T17:14:57.927Z,47.45
2022-12-11T17:17:24.867Z,45.38
2022-12-11T17:19:51.287Z,44.65
2022-12-11T17:22:17.747Z,105.00
2022-12-11T17:24:44.157Z,91.78
2022-12-11T17:27:10.544Z,114.63
2022-12-11T17:29:36.918Z,91.55
2022-12-11T17:32:03.449Z,56.97
2022-12-11T17:34:36.063Z,49.63
2022-12-11T17:37:04.104Z,45.58
2022-12-11T17:39:30.631Z,64.72
2022-12-11T17:41:57.035Z,152.00
2022-12-11T17:44:23.547Z,74.03
2022-12-11T17:46:50.254Z,47.22
2022-12-11T17:49:16.730Z,42.22
2022-12-11T17:51:43.284Z,39.80
2022-12-11T17:54:09.648Z,37.92
2022-12-11T17:56:36.315Z,47.45
2022-12-11T17:59:03.038Z,46.72
2022-12-11T18:01:29.464Z,40.17
2022-12-11T18:03:56.784Z,37.90
2022-12-11T18:06:23.274Z,32.75
2022-12-11T18:08:49.687Z,34.33
2022-12-11T18:11:17.889Z,33.60
2022-12-11T18:13:44.867Z,31.55
2022-12-11T18:16:12.758Z,34.95
2022-12-11T18:18:39.476Z,31.05
2022-12-11T18:21:06.081Z,32.28
2022-12-11T18:23:32.783Z,57.08
2022-12-11T18:29:20.902Z,41.17
2022-12-11T18:31:47.288Z,45.22
2022-12-11T18:34:13.702Z,33.35
2022-12-11T18:36:40.816Z,36.00
2022-12-11T18:39:07.248Z,37.73
2022-12-11T18:41:33.624Z,34.65
2022-12-11T18:44:05.173Z,31.95
2022-12-11T18:46:34.531Z,34.28
2022-12-11T18:49:00.932Z,38.97
2022-12-11T18:51:27.367Z,34.08
2022-12-11T18:53:53.813Z,37.45
2022-12-11T18:56:20.831Z,50.10
2022-12-11T18:58:47.591Z,42.88
2022-12-11T19:01:21.655Z,41.63
2022-12-11T19:03:48.404Z,32.03
2022-12-11T19:06:17.520Z,31.33
2022-12-11T19:08:44.197Z,31.45
2022-12-11T19:11:14.077Z,32.88
2022-12-11T19:13:40.486Z,31.17
2022-12-11T19:16:07.168Z,30.83
2022-12-11T19:18:33.615Z,30.55
2022-12-11T19:21:08.321Z,30.60
2022-12-11T19:23:35.392Z,27.08
2022-12-11T19:26:02.408Z,32.15
2022-12-11T19:28:28.841Z,31.95
2022-12-11T19:30:55.314Z,33.60
2022-12-11T19:33:21.966Z,33.30
2022-12-11T19:35:48.365Z,33.13
2022-12-11T19:38:14.821Z,31.35
2022-12-11T19:40:42.045Z,33.38
2022-12-11T19:43:08.657Z,37.20
2022-12-11T19:45:35.093Z,32.92
2022-12-11T19:48:01.792Z,34.95
2022-12-11T19:50:28.257Z,30.08
2022-12-11T19:52:54.698Z,31.70
2022-12-11T19:55:21.662Z,31.50
2022-12-11T19:57:48.080Z,41.00
2022-12-11T20:00:14.735Z,44.10
2022-12-11T20:02:41.121Z,46.30
2022-12-11T20:05:08.162Z,46.33
2022-12-11T20:07:34.550Z,58.53
2022-12-11T20:10:00.957Z,58.72
2022-12-11T20:12:28.536Z,52.22
2022-12-11T20:14:54.902Z,55.47
2022-12-11T20:17:21.373Z,47.92
2022-12-11T20:19:47.769Z,60.47
2022-12-11T20:22:14.184Z,62.67
2022-12-11T20:24:40.603Z,56.00
2022-12-11T20:27:07.027Z,52.53
2022-12-11T20:29:33.446Z,61.17
2022-12-11T20:32:00.497Z,103.72
2022-12-11T20:34:27.123Z,90.33
2022-12-11T20:36:54.419Z,84.20
2022-12-11T20:39:20.885Z,93.35
2022-12-11T20:41:47.271Z,61.00
2022-12-11T20:44:13.751Z,51.90
2022-12-11T20:46:40.832Z,52.22
2022-12-11T20:49:12.737Z,63.33
2022-12-11T20:51:40.068Z,69.95
2022-12-11T20:54:06.561Z,60.50
2022-12-11T20:56:32.984Z,56.78
2022-12-11T20:59:00.066Z,80.78
2022-12-11T21:01:27.460Z,75.30
2022-12-11T21:03:54.442Z,53.17
2022-12-11T21:06:25.928Z,47.53
2022-12-11T21:08:52.859Z,52.10
2022-12-11T21:11:19.279Z,50.92
2022-12-11T21:13:45.766Z,49.33
2022-12-11T21:16:12.295Z,49.00
2022-12-11T21:18:39.873Z,51.05
2022-12-11T21:21:06.621Z,46.83
2022-12-11T21:23:33.337Z,56.42
2022-12-11T21:25:59.752Z,53.97
2022-12-11T21:28:30.551Z,54.92
2022-12-11T21:31:04.313Z,57.85
2022-12-11T21:33:30.779Z,58.88
2022-12-11T21:35:57.754Z,52.92
2022-12-11T21:38:24.184Z,48.63
2022-12-11T21:40:51.401Z,51.08
2022-12-11T21:43:17.878Z,55.53
2022-12-11T21:46:03.647Z,57.42
2022-12-11T21:48:30.395Z,47.15
2022-12-11T21:51:04.269Z,48.10
2022-12-11T21:53:30.826Z,45.20
2022-12-11T21:55:57.173Z,41.78
2022-12-11T21:58:23.596Z,38.25
2022-12-11T22:00:50.019Z,36.30
2022-12-11T22:03:16.400Z,36.22
2022-12-11T22:05:42.794Z,33.97
2022-12-11T22:08:09.261Z,35.28
2022-12-11T22:10:35.683Z,32.85
2022-12-11T22:13:02.252Z,30.90
2022-12-11T22:15:28.635Z,32.60
2022-12-11T22:17:55.011Z,30.88
2022-12-11T22:20:21.346Z,28.35
2022-12-11T22:22:47.822Z,28.23
2022-12-11T22:25:14.506Z,25.70
2022-12-11T22:27:41.114Z,19.67
2022-12-11T22:30:07.775Z,22.95
2022-12-11T22:32:34.163Z,23.17
2022-12-11T22:35:00.578Z,28.83
2022-12-11T22:37:26.972Z,24.38
2022-12-11T22:39:53.348Z,25.40
2022-12-11T22:42:19.750Z,22.95
2022-12-11T22:44:46.184Z,27.30
2022-12-11T22:47:12.935Z,38.28
2022-12-11T22:49:39.442Z,34.45
2022-12-11T22:52:05.929Z,30.88
2022-12-11T22:54:32.296Z,33.38
2022-12-11T22:56:58.714Z,33.10
2022-12-11T22:59:25.070Z,33.35
2022-12-11T23:01:51.546Z,34.10
2022-12-11T23:04:17.907Z,32.38
2022-12-11T23:06:44.266Z,34.15
2022-12-11T23:09:10.642Z,28.98
2022-12-11T23:11:37.590Z,32.90
2022-12-11T23:14:05.220Z,40.65
2022-12-11T23:16:32.126Z,38.95
2022-12-11T23:18:58.658Z,38.97
2022-12-11T23:21:25.541Z,34.75
2022-12-11T23:23:52.211Z,36.88
2022-12-11T23:26:19.226Z,34.15
2022-12-11T23:28:46.218Z,27.42
2022-12-11T23:31:13.122Z,27.13
2022-12-11T23:33:39.815Z,40.58
2022-12-11T23:36:06.404Z,27.00
2022-12-11T23:38:32.794Z,31.08
2022-12-11T23:41:00.563Z,29.17
2022-12-11T23:43:27.010Z,31.15
2022-12-11T23:45:53.495Z,35.35
2022-12-11T23:48:19.938Z,31.45
2022-12-11T23:50:46.339Z,31.73
2022-12-11T23:53:12.707Z,31.17
2022-12-11T23:55:40.284Z,32.15
2022-12-11T23:58:06.764Z,30.45
